Terminal Aerodrome Forecast
Issued by NWS Grand Forks, ND

Home | Current Version | Previous Version | Graphics & Text | Print | Product List | Glossary On
Versions: 1 2 3 4 5 6 7 8 9 10 11 12 13 14 15 16 17 18 19 20 21
327
FTUS43 KFGF 071137
TAFFAR
TAF
KFAR 071137Z 0712/0812 29019G28KT P6SM OVC040
     FM071600 30022G30KT 4SM -SN BKN015
     FM071900 33030G45KT 1/4SM SN BLSN BKN008
     FM080400 34025G32KT 3/4SM BLSN BKN020=

USA.gov is the U.S. government's official web portal to all federal, state and local government web resources and services.